sensor_id;sensor_type;location;lat;lon;timestamp;temperature;humidity
2767;DHT22;1391;46.742;11.636;2022-10-15T00:01:18;12.00;99.90
2767;DHT22;1391;46.742;11.636;2022-10-15T00:03:46;12.20;99.90
2767;DHT22;1391;46.742;11.636;2022-10-15T00:06:15;12.20;99.90
2767;DHT22;1391;46.742;11.636;2022-10-15T00:08:46;12.10;99.90
2767;DHT22;1391;46.742;11.636;2022-10-15T00:11:15;12.10;99.90
2767;DHT22;1391;46.742;11.636;2022-10-15T00:13:46;12.00;99.90
2767;DHT22;1391;46.742;11.636;2022-10-15T00:16:15;12.20;99.90
2767;DHT22;1391;46.742;11.636;2022-10-15T00:18:44;12.50;99.90
2767;DHT22;1391;46.742;11.636;2022-10-15T00:21:13;12.50;99.90
2767;DHT22;1391;46.742;11.636;2022-10-15T00:23:41;12.20;99.90
2767;DHT22;1391;46.742;11.636;2022-10-15T00:26:11;12.00;99.90
2767;DHT22;1391;46.742;11.636;2022-10-15T00:28:40;12.20;99.90
2767;DHT22;1391;46.742;11.636;2022-10-15T00:31:10;12.50;99.90
2767;DHT22;1391;46.742;11.636;2022-10-15T00:33:39;12.60;99.90
2767;DHT22;1391;46.742;11.636;2022-10-15T00:36:09;12.30;99.90
2767;DHT22;1391;46.742;11.636;2022-10-15T00:38:38;12.30;99.90
2767;DHT22;1391;46.742;11.636;2022-10-15T00:41:07;12.60;99.90
2767;DHT22;1391;46.742;11.636;2022-10-15T00:43:38;12.30;99.90
2767;DHT22;1391;46.742;11.636;2022-10-15T00:46:16;12.30;99.90
2767;DHT22;1391;46.742;11.636;2022-10-15T00:48:50;12.30;99.90
2767;DHT22;1391;46.742;11.636;2022-10-15T00:51:22;12.70;99.90
2767;DHT22;1391;46.742;11.636;2022-10-15T00:53:51;12.70;99.90
2767;DHT22;1391;46.742;11.636;2022-10-15T00:56:21;12.60;99.90
2767;DHT22;1391;46.742;11.636;2022-10-15T00:58:51;12.50;99.90
2767;DHT22;1391;46.742;11.636;2022-10-15T01:01:21;12.60;99.90
2767;DHT22;1391;46.742;11.636;2022-10-15T01:03:50;12.40;99.90
2767;DHT22;1391;46.742;11.636;2022-10-15T01:06:18;12.40;99.90
2767;DHT22;1391;46.742;11.636;2022-10-15T01:08:46;12.30;99.90
2767;DHT22;1391;46.742;11.636;2022-10-15T01:11:26;12.30;99.90
2767;DHT22;1391;46.742;11.636;2022-10-15T01:14:01;12.30;99.90
2767;DHT22;1391;46.742;11.636;2022-10-15T01:16:43;12.30;99.90
2767;DHT22;1391;46.742;11.636;2022-10-15T01:19:24;12.00;99.90
2767;DHT22;1391;46.742;11.636;2022-10-15T01:22:00;12.20;99.90
2767;DHT22;1391;46.742;11.636;2022-10-15T01:25:00;12.10;99.90
2767;DHT22;1391;46.742;11.636;2022-10-15T01:27:35;12.10;99.90
2767;DHT22;1391;46.742;11.636;2022-10-15T01:30:26;12.30;99.90
2767;DHT22;1391;46.742;11.636;2022-10-15T01:35:50;12.50;99.90
2767;DHT22;1391;46.742;11.636;2022-10-15T01:38:29;12.70;99.90
2767;DHT22;1391;46.742;11.636;2022-10-15T01:41:06;12.60;99.90
2767;DHT22;1391;46.742;11.636;2022-10-15T01:43:38;12.40;99.90
2767;DHT22;1391;46.742;11.636;2022-10-15T01:46:17;12.10;99.90
2767;DHT22;1391;46.742;11.636;2022-10-15T01:48:47;12.00;99.90
2767;DHT22;1391;46.742;11.636;2022-10-15T01:51:16;12.50;99.90
2767;DHT22;1391;46.742;11.636;2022-10-15T01:53:44;12.30;99.90
2767;DHT22;1391;46.742;11.636;2022-10-15T01:56:14;12.00;99.90
2767;DHT22;1391;46.742;11.636;2022-10-15T01:58:44;12.30;99.90
2767;DHT22;1391;46.742;11.636;2022-10-15T02:01:14;12.00;99.90
2767;DHT22;1391;46.742;11.636;2022-10-15T02:03:46;12.20;99.90
2767;DHT22;1391;46.742;11.636;2022-10-15T02:06:20;12.20;99.90
2767;DHT22;1391;46.742;11.636;2022-10-15T02:09:00;12.10;99.90
2767;DHT22;1391;46.742;11.636;2022-10-15T02:11:38;11.90;99.90
2767;DHT22;1391;46.742;11.636;2022-10-15T02:14:15;12.00;99.90
2767;DHT22;1391;46.742;11.636;2022-10-15T02:16:52;12.10;99.90
2767;DHT22;1391;46.742;11.636;2022-10-15T02:19:28;12.00;99.90
2767;DHT22;1391;46.742;11.636;2022-10-15T02:22:02;12.20;99.90
2767;DHT22;1391;46.742;11.636;2022-10-15T02:24:35;12.10;99.90
2767;DHT22;1391;46.742;11.636;2022-10-15T02:27:06;12.10;99.90
2767;DHT22;1391;46.742;11.636;2022-10-15T02:29:35;12.10;99.90
2767;DHT22;1391;46.742;11.636;2022-10-15T02:32:06;12.00;99.90
2767;DHT22;1391;46.742;11.636;2022-10-15T02:34:35;12.10;99.90
2767;DHT22;1391;46.742;11.636;2022-10-15T02:37:04;12.10;99.90
2767;DHT22;1391;46.742;11.636;2022-10-15T02:39:33;12.10;99.90
2767;DHT22;1391;46.742;11.636;2022-10-15T02:42:01;12.00;99.90
2767;DHT22;1391;46.742;11.636;2022-10-15T02:44:29;12.20;99.90
2767;DHT22;1391;46.742;11.636;2022-10-15T02:46:57;12.20;99.90
2767;DHT22;1391;46.742;11.636;2022-10-15T02:49:26;12.10;99.90
2767;DHT22;1391;46.742;11.636;2022-10-15T02:51:53;12.10;99.90
2767;DHT22;1391;46.742;11.636;2022-10-15T02:54:21;12.10;99.90
2767;DHT22;1391;46.742;11.636;2022-10-15T02:56:48;12.10;99.90
2767;DHT22;1391;46.742;11.636;2022-10-15T02:59:15;12.10;99.90
2767;DHT22;1391;46.742;11.636;2022-10-15T03:01:44;12.00;99.90
2767;DHT22;1391;46.742;11.636;2022-10-15T03:04:11;12.10;99.90
2767;DHT22;1391;46.742;11.636;2022-10-15T03:06:40;12.10;99.90
2767;DHT22;1391;46.742;11.636;2022-10-15T03:09:08;12.20;99.90
2767;DHT22;1391;46.742;11.636;2022-10-15T03:11:37;12.20;99.90
2767;DHT22;1391;46.742;11.636;2022-10-15T03:14:04;12.10;99.90
2767;DHT22;1391;46.742;11.636;2022-10-15T03:16:31;12.00;99.90
2767;DHT22;1391;46.742;11.636;2022-10-15T03:18:59;12.10;99.90
2767;DHT22;1391;46.742;11.636;2022-10-15T03:21:26;12.00;99.90
2767;DHT22;1391;46.742;11.636;2022-10-15T03:23:57;12.20;99.90
2767;DHT22;1391;46.742;11.636;2022-10-15T03:26:24;12.20;99.90
2767;DHT22;1391;46.742;11.636;2022-10-15T03:28:52;12.10;99.90
2767;DHT22;1391;46.742;11.636;2022-10-15T03:31:19;12.10;99.90
2767;DHT22;1391;46.742;11.636;2022-10-15T03:33:46;12.10;99.90
2767;DHT22;1391;46.742;11.636;2022-10-15T03:36:14;12.00;99.90
2767;DHT22;1391;46.742;11.636;2022-10-15T03:38:41;12.20;99.90
2767;DHT22;1391;46.742;11.636;2022-10-15T03:41:10;12.20;99.90
2767;DHT22;1391;46.742;11.636;2022-10-15T03:43:37;12.10;99.90
2767;DHT22;1391;46.742;11.636;2022-10-15T03:46:05;12.10;99.90
2767;DHT22;1391;46.742;11.636;2022-10-15T03:48:32;12.00;99.90
2767;DHT22;1391;46.742;11.636;2022-10-15T03:50:59;12.20;99.90
2767;DHT22;1391;46.742;11.636;2022-10-15T03:53:27;12.10;99.90
2767;DHT22;1391;46.742;11.636;2022-10-15T03:55:54;12.10;99.90
2767;DHT22;1391;46.742;11.636;2022-10-15T03:58:23;12.00;99.90
2767;DHT22;1391;46.742;11.636;2022-10-15T04:00:50;12.20;99.90
2767;DHT22;1391;46.742;11.636;2022-10-15T04:03:18;12.40;99.90
2767;DHT22;1391;46.742;11.636;2022-10-15T04:05:49;12.00;99.90
2767;DHT22;1391;46.742;11.636;2022-10-15T04:08:17;12.50;99.90
2767;DHT22;1391;46.742;11.636;2022-10-15T04:10:45;12.00;99.90
2767;DHT22;1391;46.742;11.636;2022-10-15T04:13:12;12.20;99.90
2767;DHT22;1391;46.742;11.636;2022-10-15T04:15:41;12.10;99.90
2767;DHT22;1391;46.742;11.636;2022-10-15T04:18:08;12.00;99.90
2767;DHT22;1391;46.742;11.636;2022-10-15T04:20:36;12.20;99.90
2767;DHT22;1391;46.742;11.636;2022-10-15T04:23:04;12.20;99.90
2767;DHT22;1391;46.742;11.636;2022-10-15T04:25:31;12.10;99.90
2767;DHT22;1391;46.742;11.636;2022-10-15T04:27:58;12.10;99.90
2767;DHT22;1391;46.742;11.636;2022-10-15T04:30:25;12.20;99.90
2767;DHT22;1391;46.742;11.636;2022-10-15T04:32:54;12.10;99.90
2767;DHT22;1391;46.742;11.636;2022-10-15T04:35:21;12.10;99.90
2767;DHT22;1391;46.742;11.636;2022-10-15T04:37:48;12.10;99.90
2767;DHT22;1391;46.742;11.636;2022-10-15T04:40:16;12.10;99.90
2767;DHT22;1391;46.742;11.636;2022-10-15T04:42:44;12.10;99.90
2767;DHT22;1391;46.742;11.636;2022-10-15T04:45:11;12.10;99.90
2767;DHT22;1391;46.742;11.636;2022-10-15T04:47:38;12.10;99.90
2767;DHT22;1391;46.742;11.636;2022-10-15T04:50:08;12.10;99.90
2767;DHT22;1391;46.742;11.636;2022-10-15T04:52:35;12.10;99.90
2767;DHT22;1391;46.742;11.636;2022-10-15T04:55:03;12.10;99.90
2767;DHT22;1391;46.742;11.636;2022-10-15T04:57:31;12.20;99.90
2767;DHT22;1391;46.742;11.636;2022-10-15T04:59:58;12.20;99.90
2767;DHT22;1391;46.742;11.636;2022-10-15T05:02:26;12.10;99.90
2767;DHT22;1391;46.742;11.636;2022-10-15T05:04:53;12.10;99.90
2767;DHT22;1391;46.742;11.636;2022-10-15T05:07:21;12.10;99.90
2767;DHT22;1391;46.742;11.636;2022-10-15T05:09:49;12.10;99.90
2767;DHT22;1391;46.742;11.636;2022-10-15T05:12:16;12.00;99.90
2767;DHT22;1391;46.742;11.636;2022-10-15T05:14:45;12.30;99.90
2767;DHT22;1391;46.742;11.636;2022-10-15T05:17:12;11.90;99.90
2767;DHT22;1391;46.742;11.636;2022-10-15T05:19:40;12.00;99.90
2767;DHT22;1391;46.742;11.636;2022-10-15T05:22:07;12.30;99.90
2767;DHT22;1391;46.742;11.636;2022-10-15T05:24:36;12.00;99.90
2767;DHT22;1391;46.742;11.636;2022-10-15T05:27:03;12.10;99.90
2767;DHT22;1391;46.742;11.636;2022-10-15T05:29:32;12.00;99.90
2767;DHT22;1391;46.742;11.636;2022-10-15T05:31:59;12.10;99.90
2767;DHT22;1391;46.742;11.636;2022-10-15T05:34:27;12.10;99.90
2767;DHT22;1391;46.742;11.636;2022-10-15T05:36:55;12.00;99.90
2767;DHT22;1391;46.742;11.636;2022-10-15T05:39:22;12.20;99.90
2767;DHT22;1391;46.742;11.636;2022-10-15T05:41:51;12.10;99.90
2767;DHT22;1391;46.742;11.636;2022-10-15T05:44:18;12.10;99.90
2767;DHT22;1391;46.742;11.636;2022-10-15T05:46:46;12.10;99.90
2767;DHT22;1391;46.742;11.636;2022-10-15T05:49:14;12.10;99.90
2767;DHT22;1391;46.742;11.636;2022-10-15T05:51:41;12.10;99.90
2767;DHT22;1391;46.742;11.636;2022-10-15T05:54:09;12.10;99.90
2767;DHT22;1391;46.742;11.636;2022-10-15T05:56:36;12.00;99.90
2767;DHT22;1391;46.742;11.636;2022-10-15T05:59:05;12.10;99.90
2767;DHT22;1391;46.742;11.636;2022-10-15T06:01:32;12.20;99.90
2767;DHT22;1391;46.742;11.636;2022-10-15T06:03:59;12.50;99.90
2767;DHT22;1391;46.742;11.636;2022-10-15T06:06:26;12.60;99.90
2767;DHT22;1391;46.742;11.636;2022-10-15T06:08:54;12.30;99.90
2767;DHT22;1391;46.742;11.636;2022-10-15T06:11:21;12.60;99.90
2767;DHT22;1391;46.742;11.636;2022-10-15T06:13:49;12.40;99.90
2767;DHT22;1391;46.742;11.636;2022-10-15T06:16:18;12.30;99.90
2767;DHT22;1391;46.742;11.636;2022-10-15T06:18:49;12.30;99.90
2767;DHT22;1391;46.742;11.636;2022-10-15T06:21:17;12.00;99.90
2767;DHT22;1391;46.742;11.636;2022-10-15T06:23:45;12.50;99.90
2767;DHT22;1391;46.742;11.636;2022-10-15T06:26:12;12.60;99.90
2767;DHT22;1391;46.742;11.636;2022-10-15T06:28:40;12.30;99.90
2767;DHT22;1391;46.742;11.636;2022-10-15T06:31:07;12.60;99.90
2767;DHT22;1391;46.742;11.636;2022-10-15T06:33:36;12.70;99.90
2767;DHT22;1391;46.742;11.636;2022-10-15T06:36:06;12.50;99.90
2767;DHT22;1391;46.742;11.636;2022-10-15T06:38:34;12.60;99.90
2767;DHT22;1391;46.742;11.636;2022-10-15T06:41:03;12.40;99.90
2767;DHT22;1391;46.742;11.636;2022-10-15T06:43:31;12.40;99.90
2767;DHT22;1391;46.742;11.636;2022-10-15T06:45:58;12.40;99.90
2767;DHT22;1391;46.742;11.636;2022-10-15T06:48:26;12.70;99.90
2767;DHT22;1391;46.742;11.636;2022-10-15T06:50:57;12.50;99.90
2767;DHT22;1391;46.742;11.636;2022-10-15T06:53:25;12.60;99.90
2767;DHT22;1391;46.742;11.636;2022-10-15T06:55:55;12.70;99.90
2767;DHT22;1391;46.742;11.636;2022-10-15T06:58:24;12.60;99.90
2767;DHT22;1391;46.742;11.636;2022-10-15T07:00:51;12.40;99.90
2767;DHT22;1391;46.742;11.636;2022-10-15T07:03:18;12.30;99.90
2767;DHT22;1391;46.742;11.636;2022-10-15T07:05:45;12.60;99.90
2767;DHT22;1391;46.742;11.636;2022-10-15T07:08:14;12.70;99.90
2767;DHT22;1391;46.742;11.636;2022-10-15T07:10:42;12.60;99.90
2767;DHT22;1391;46.742;11.636;2022-10-15T07:13:09;12.70;99.90
2767;DHT22;1391;46.742;11.636;2022-10-15T07:15:36;12.60;99.90
2767;DHT22;1391;46.742;11.636;2022-10-15T07:18:04;12.70;99.90
2767;DHT22;1391;46.742;11.636;2022-10-15T07:20:31;12.90;99.90
2767;DHT22;1391;46.742;11.636;2022-10-15T07:23:00;12.50;99.90
2767;DHT22;1391;46.742;11.636;2022-10-15T07:25:29;12.90;99.90
2767;DHT22;1391;46.742;11.636;2022-10-15T07:27:57;12.90;99.90
2767;DHT22;1391;46.742;11.636;2022-10-15T07:30:25;12.90;99.90
2767;DHT22;1391;46.742;11.636;2022-10-15T07:32:54;12.90;99.90
2767;DHT22;1391;46.742;11.636;2022-10-15T07:35:22;12.90;99.90
2767;DHT22;1391;46.742;11.636;2022-10-15T07:37:50;12.90;99.90
2767;DHT22;1391;46.742;11.636;2022-10-15T07:40:17;12.90;99.90
2767;DHT22;1391;46.742;11.636;2022-10-15T07:42:51;12.90;99.90
2767;DHT22;1391;46.742;11.636;2022-10-15T07:45:19;12.90;99.90
2767;DHT22;1391;46.742;11.636;2022-10-15T07:47:47;12.90;99.90
2767;DHT22;1391;46.742;11.636;2022-10-15T07:50:14;12.90;99.90
2767;DHT22;1391;46.742;11.636;2022-10-15T07:52:42;13.00;99.90
2767;DHT22;1391;46.742;11.636;2022-10-15T07:55:09;13.00;99.90
2767;DHT22;1391;46.742;11.636;2022-10-15T07:57:37;13.00;99.90
2767;DHT22;1391;46.742;11.636;2022-10-15T08:00:07;13.00;99.90
2767;DHT22;1391;46.742;11.636;2022-10-15T08:02:36;13.00;99.90
2767;DHT22;1391;46.742;11.636;2022-10-15T08:05:04;13.30;99.90
2767;DHT22;1391;46.742;11.636;2022-10-15T08:07:31;13.50;99.90
2767;DHT22;1391;46.742;11.636;2022-10-15T08:09:59;13.60;99.90
2767;DHT22;1391;46.742;11.636;2022-10-15T08:12:26;13.40;99.90
2767;DHT22;1391;46.742;11.636;2022-10-15T08:14:54;13.40;99.90
2767;DHT22;1391;46.742;11.636;2022-10-15T08:17:23;13.40;99.90
2767;DHT22;1391;46.742;11.636;2022-10-15T08:19:51;13.80;99.90
2767;DHT22;1391;46.742;11.636;2022-10-15T08:22:18;13.70;99.90
2767;DHT22;1391;46.742;11.636;2022-10-15T08:24:46;13.60;99.90
2767;DHT22;1391;46.742;11.636;2022-10-15T08:27:14;13.40;99.90
2767;DHT22;1391;46.742;11.636;2022-10-15T08:29:41;14.20;99.90
2767;DHT22;1391;46.742;11.636;2022-10-15T08:32:08;13.90;99.90
2767;DHT22;1391;46.742;11.636;2022-10-15T08:34:37;13.90;99.90
2767;DHT22;1391;46.742;11.636;2022-10-15T08:37:05;13.90;99.90
2767;DHT22;1391;46.742;11.636;2022-10-15T08:39:32;13.90;99.90
2767;DHT22;1391;46.742;11.636;2022-10-15T08:42:01;14.30;99.90
2767;DHT22;1391;46.742;11.636;2022-10-15T08:44:32;14.50;99.90
2767;DHT22;1391;46.742;11.636;2022-10-15T08:47:08;14.70;99.90
2767;DHT22;1391;46.742;11.636;2022-10-15T08:49:46;14.60;99.90
2767;DHT22;1391;46.742;11.636;2022-10-15T08:52:19;14.40;99.90
2767;DHT22;1391;46.742;11.636;2022-10-15T08:54:51;14.40;99.90
2767;DHT22;1391;46.742;11.636;2022-10-15T08:57:25;14.40;99.90
2767;DHT22;1391;46.742;11.636;2022-10-15T09:00:04;14.40;99.90
2767;DHT22;1391;46.742;11.636;2022-10-15T09:02:43;14.40;99.90
2767;DHT22;1391;46.742;11.636;2022-10-15T09:05:29;14.40;99.90
2767;DHT22;1391;46.742;11.636;2022-10-15T09:08:09;14.40;99.90
2767;DHT22;1391;46.742;11.636;2022-10-15T09:10:45;14.40;99.90
2767;DHT22;1391;46.742;11.636;2022-10-15T09:13:17;14.50;99.90
2767;DHT22;1391;46.742;11.636;2022-10-15T09:15:51;14.40;99.90
2767;DHT22;1391;46.742;11.636;2022-10-15T09:18:24;14.60;99.90
2767;DHT22;1391;46.742;11.636;2022-10-15T09:20:54;14.80;99.90
2767;DHT22;1391;46.742;11.636;2022-10-15T09:23:26;14.40;99.90
2767;DHT22;1391;46.742;11.636;2022-10-15T09:26:02;14.80;99.90
2767;DHT22;1391;46.742;11.636;2022-10-15T09:28:39;14.80;99.90
2767;DHT22;1391;46.742;11.636;2022-10-15T09:31:13;15.20;99.90
2767;DHT22;1391;46.742;11.636;2022-10-15T09:33:47;15.10;99.90
2767;DHT22;1391;46.742;11.636;2022-10-15T09:36:29;14.90;99.90
2767;DHT22;1391;46.742;11.636;2022-10-15T09:39:09;15.00;99.90
2767;DHT22;1391;46.742;11.636;2022-10-15T09:41:57;15.00;99.90
2767;DHT22;1391;46.742;11.636;2022-10-15T09:44:36;15.20;99.10
2767;DHT22;1391;46.742;11.636;2022-10-15T09:47:15;14.80;99.00
2767;DHT22;1391;46.742;11.636;2022-10-15T09:49:44;14.90;99.70
2767;DHT22;1391;46.742;11.636;2022-10-15T09:52:19;15.20;98.80
2767;DHT22;1391;46.742;11.636;2022-10-15T09:54:58;14.90;99.30
2767;DHT22;1391;46.742;11.636;2022-10-15T09:57:30;14.90;98.20
2767;DHT22;1391;46.742;11.636;2022-10-15T10:00:02;14.80;97.80
2767;DHT22;1391;46.742;11.636;2022-10-15T10:02:32;15.10;99.50
2767;DHT22;1391;46.742;11.636;2022-10-15T10:05:18;15.20;98.00
2767;DHT22;1391;46.742;11.636;2022-10-15T10:07:48;15.30;98.80
2767;DHT22;1391;46.742;11.636;2022-10-15T10:10:24;15.30;98.60
2767;DHT22;1391;46.742;11.636;2022-10-15T10:12:54;15.60;99.10
2767;DHT22;1391;46.742;11.636;2022-10-15T10:15:30;15.50;99.30
2767;DHT22;1391;46.742;11.636;2022-10-15T10:18:00;15.90;98.00
2767;DHT22;1391;46.742;11.636;2022-10-15T10:20:30;16.00;97.70
2767;DHT22;1391;46.742;11.636;2022-10-15T10:23:07;15.90;96.60
2767;DHT22;1391;46.742;11.636;2022-10-15T10:25:48;16.20;96.80
2767;DHT22;1391;46.742;11.636;2022-10-15T10:28:18;15.50;96.00
2767;DHT22;1391;46.742;11.636;2022-10-15T10:30:59;15.40;95.40
2767;DHT22;1391;46.742;11.636;2022-10-15T10:33:31;15.30;96.20
2767;DHT22;1391;46.742;11.636;2022-10-15T10:36:02;15.40;97.10
2767;DHT22;1391;46.742;11.636;2022-10-15T10:38:34;15.40;96.20
2767;DHT22;1391;46.742;11.636;2022-10-15T10:41:07;15.40;97.20
2767;DHT22;1391;46.742;11.636;2022-10-15T10:43:37;15.40;96.20
2767;DHT22;1391;46.742;11.636;2022-10-15T10:46:17;15.40;94.50
2767;DHT22;1391;46.742;11.636;2022-10-15T10:48:48;15.40;93.80
2767;DHT22;1391;46.742;11.636;2022-10-15T10:51:19;15.40;92.60
2767;DHT22;1391;46.742;11.636;2022-10-15T10:53:52;16.10;93.80
2767;DHT22;1391;46.742;11.636;2022-10-15T10:56:23;15.90;92.60
2767;DHT22;1391;46.742;11.636;2022-10-15T10:59:02;15.90;92.90
2767;DHT22;1391;46.742;11.636;2022-10-15T11:01:37;15.90;93.10
2767;DHT22;1391;46.742;11.636;2022-10-15T11:04:10;16.20;92.90
2767;DHT22;1391;46.742;11.636;2022-10-15T11:06:53;16.10;91.10
2767;DHT22;1391;46.742;11.636;2022-10-15T11:09:41;15.80;91.00
2767;DHT22;1391;46.742;11.636;2022-10-15T11:12:37;16.10;92.10
2767;DHT22;1391;46.742;11.636;2022-10-15T11:15:32;15.90;91.40
2767;DHT22;1391;46.742;11.636;2022-10-15T11:18:20;15.90;90.40
2767;DHT22;1391;46.742;11.636;2022-10-15T11:21:02;15.90;90.90
2767;DHT22;1391;46.742;11.636;2022-10-15T11:24:01;16.70;91.80
2767;DHT22;1391;46.742;11.636;2022-10-15T11:26:47;16.30;90.80
2767;DHT22;1391;46.742;11.636;2022-10-15T11:29:34;15.90;90.10
2767;DHT22;1391;46.742;11.636;2022-10-15T11:32:21;16.20;89.60
2767;DHT22;1391;46.742;11.636;2022-10-15T11:38:05;16.20;89.70
2767;DHT22;1391;46.742;11.636;2022-10-15T11:40:49;15.90;86.20
2767;DHT22;1391;46.742;11.636;2022-10-15T11:43:41;16.70;89.90
2767;DHT22;1391;46.742;11.636;2022-10-15T11:46:18;16.30;88.10
2767;DHT22;1391;46.742;11.636;2022-10-15T11:49:03;16.30;89.50
2767;DHT22;1391;46.742;11.636;2022-10-15T11:52:06;16.50;90.20
2767;DHT22;1391;46.742;11.636;2022-10-15T11:54:41;16.40;88.10
2767;DHT22;1391;46.742;11.636;2022-10-15T11:57:13;16.50;87.20
2767;DHT22;1391;46.742;11.636;2022-10-15T11:59:48;16.50;85.00
2767;DHT22;1391;46.742;11.636;2022-10-15T12:02:21;16.70;81.90
2767;DHT22;1391;46.742;11.636;2022-10-15T12:04:52;16.50;80.70
2767;DHT22;1391;46.742;11.636;2022-10-15T12:07:24;16.50;83.40
2767;DHT22;1391;46.742;11.636;2022-10-15T12:10:04;16.40;81.00
2767;DHT22;1391;46.742;11.636;2022-10-15T12:12:40;17.30;82.10
2767;DHT22;1391;46.742;11.636;2022-10-15T12:15:21;17.30;82.00
2767;DHT22;1391;46.742;11.636;2022-10-15T12:17:57;17.20;79.20
2767;DHT22;1391;46.742;11.636;2022-10-15T12:20:28;17.30;82.90
2767;DHT22;1391;46.742;11.636;2022-10-15T12:22:58;17.00;85.10
2767;DHT22;1391;46.742;11.636;2022-10-15T12:25:53;17.00;77.60
2767;DHT22;1391;46.742;11.636;2022-10-15T12:28:22;17.40;78.50
2767;DHT22;1391;46.742;11.636;2022-10-15T12:30:57;17.40;77.30
2767;DHT22;1391;46.742;11.636;2022-10-15T12:33:32;17.20;78.10
2767;DHT22;1391;46.742;11.636;2022-10-15T12:36:05;17.10;80.50
2767;DHT22;1391;46.742;11.636;2022-10-15T12:38:37;17.90;77.40
2767;DHT22;1391;46.742;11.636;2022-10-15T12:41:07;17.60;78.20
2767;DHT22;1391;46.742;11.636;2022-10-15T12:43:38;17.90;79.20
2767;DHT22;1391;46.742;11.636;2022-10-15T12:46:10;17.60;81.20
2767;DHT22;1391;46.742;11.636;2022-10-15T12:48:40;17.50;75.00
2767;DHT22;1391;46.742;11.636;2022-10-15T12:54:00;17.70;73.70
2767;DHT22;1391;46.742;11.636;2022-10-15T12:56:37;17.80;75.60
2767;DHT22;1391;46.742;11.636;2022-10-15T12:59:27;17.80;76.20
2767;DHT22;1391;46.742;11.636;2022-10-15T13:01:58;17.80;75.40
2767;DHT22;1391;46.742;11.636;2022-10-15T13:04:36;17.50;73.80
2767;DHT22;1391;46.742;11.636;2022-10-15T13:07:04;17.10;73.00
2767;DHT22;1391;46.742;11.636;2022-10-15T13:09:31;17.10;74.60
2767;DHT22;1391;46.742;11.636;2022-10-15T13:11:59;17.90;75.80
2767;DHT22;1391;46.742;11.636;2022-10-15T13:14:32;17.80;75.40
2767;DHT22;1391;46.742;11.636;2022-10-15T13:17:12;17.60;78.10
2767;DHT22;1391;46.742;11.636;2022-10-15T13:19:46;17.90;74.00
2767;DHT22;1391;46.742;11.636;2022-10-15T13:22:23;17.80;76.80
2767;DHT22;1391;46.742;11.636;2022-10-15T13:24:51;17.90;78.50
2767;DHT22;1391;46.742;11.636;2022-10-15T13:27:23;17.50;76.90
2767;DHT22;1391;46.742;11.636;2022-10-15T13:29:56;18.00;74.90
2767;DHT22;1391;46.742;11.636;2022-10-15T13:32:28;17.90;72.20
2767;DHT22;1391;46.742;11.636;2022-10-15T13:34:57;17.60;74.50
2767;DHT22;1391;46.742;11.636;2022-10-15T13:37:29;17.70;73.60
2767;DHT22;1391;46.742;11.636;2022-10-15T13:39:58;17.80;73.60
2767;DHT22;1391;46.742;11.636;2022-10-15T13:42:29;17.90;72.80
2767;DHT22;1391;46.742;11.636;2022-10-15T13:44:58;17.60;76.40
2767;DHT22;1391;46.742;11.636;2022-10-15T13:47:31;17.90;74.40
2767;DHT22;1391;46.742;11.636;2022-10-15T13:50:21;18.30;79.60
2767;DHT22;1391;46.742;11.636;2022-10-15T13:52:52;17.90;72.40
2767;DHT22;1391;46.742;11.636;2022-10-15T13:55:24;17.70;75.50
2767;DHT22;1391;46.742;11.636;2022-10-15T13:57:56;17.90;74.00
2767;DHT22;1391;46.742;11.636;2022-10-15T14:00:28;18.40;78.20
2767;DHT22;1391;46.742;11.636;2022-10-15T14:03:14;17.80;73.30
2767;DHT22;1391;46.742;11.636;2022-10-15T14:05:43;17.60;71.90
2767;DHT22;1391;46.742;11.636;2022-10-15T14:08:22;17.90;72.60
2767;DHT22;1391;46.742;11.636;2022-10-15T14:10:52;17.90;74.70
2767;DHT22;1391;46.742;11.636;2022-10-15T14:13:21;18.10;76.30
2767;DHT22;1391;46.742;11.636;2022-10-15T14:16:09;17.90;73.30
2767;DHT22;1391;46.742;11.636;2022-10-15T14:18:43;18.30;72.80
2767;DHT22;1391;46.742;11.636;2022-10-15T14:21:13;17.60;71.40
2767;DHT22;1391;46.742;11.636;2022-10-15T14:23:44;17.70;72.50
2767;DHT22;1391;46.742;11.636;2022-10-15T14:26:13;17.80;72.80
2767;DHT22;1391;46.742;11.636;2022-10-15T14:28:47;17.90;71.80
2767;DHT22;1391;46.742;11.636;2022-10-15T14:31:32;17.70;70.80
2767;DHT22;1391;46.742;11.636;2022-10-15T14:36:54;18.30;71.30
2767;DHT22;1391;46.742;11.636;2022-10-15T14:39:28;17.80;71.20
2767;DHT22;1391;46.742;11.636;2022-10-15T14:41:58;17.80;69.70
2767;DHT22;1391;46.742;11.636;2022-10-15T14:44:39;18.00;70.60
2767;DHT22;1391;46.742;11.636;2022-10-15T14:47:16;17.80;69.70
2767;DHT22;1391;46.742;11.636;2022-10-15T14:49:48;18.00;69.80
2767;DHT22;1391;46.742;11.636;2022-10-15T14:52:20;17.80;70.70
2767;DHT22;1391;46.742;11.636;2022-10-15T14:54:59;17.90;70.90
2767;DHT22;1391;46.742;11.636;2022-10-15T14:57:31;17.90;71.30
2767;DHT22;1391;46.742;11.636;2022-10-15T15:00:03;17.90;71.60
2767;DHT22;1391;46.742;11.636;2022-10-15T15:02:37;17.80;72.50
2767;DHT22;1391;46.742;11.636;2022-10-15T15:05:20;17.70;73.30
2767;DHT22;1391;46.742;11.636;2022-10-15T15:07:49;17.80;72.80
2767;DHT22;1391;46.742;11.636;2022-10-15T15:10:16;17.80;72.40
2767;DHT22;1391;46.742;11.636;2022-10-15T15:12:48;17.90;75.60
2767;DHT22;1391;46.742;11.636;2022-10-15T15:15:19;17.90;72.80
2767;DHT22;1391;46.742;11.636;2022-10-15T15:17:48;17.60;77.60
2767;DHT22;1391;46.742;11.636;2022-10-15T15:20:17;17.80;74.50
2767;DHT22;1391;46.742;11.636;2022-10-15T15:22:46;17.90;76.20
2767;DHT22;1391;46.742;11.636;2022-10-15T15:25:18;17.70;76.80
2767;DHT22;1391;46.742;11.636;2022-10-15T15:27:46;17.40;80.20
2767;DHT22;1391;46.742;11.636;2022-10-15T15:30:16;17.10;83.60
2767;DHT22;1391;46.742;11.636;2022-10-15T15:32:46;17.20;84.00
2767;DHT22;1391;46.742;11.636;2022-10-15T15:35:21;17.00;82.80
2767;DHT22;1391;46.742;11.636;2022-10-15T15:37:52;17.00;82.90
2767;DHT22;1391;46.742;11.636;2022-10-15T15:40:19;16.50;82.30
2767;DHT22;1391;46.742;11.636;2022-10-15T15:42:48;16.80;83.00
2767;DHT22;1391;46.742;11.636;2022-10-15T15:45:19;16.80;86.50
2767;DHT22;1391;46.742;11.636;2022-10-15T15:47:47;16.60;89.50
2767;DHT22;1391;46.742;11.636;2022-10-15T15:50:15;16.70;92.00
2767;DHT22;1391;46.742;11.636;2022-10-15T15:52:44;16.30;91.70
2767;DHT22;1391;46.742;11.636;2022-10-15T15:55:13;16.70;91.80
2767;DHT22;1391;46.742;11.636;2022-10-15T15:57:40;16.00;92.70
2767;DHT22;1391;46.742;11.636;2022-10-15T16:00:11;16.00;92.50
2767;DHT22;1391;46.742;11.636;2022-10-15T16:02:39;15.80;93.00
2767;DHT22;1391;46.742;11.636;2022-10-15T16:05:08;15.40;94.60
2767;DHT22;1391;46.742;11.636;2022-10-15T16:07:38;15.30;97.10
2767;DHT22;1391;46.742;11.636;2022-10-15T16:10:08;14.90;98.00
2767;DHT22;1391;46.742;11.636;2022-10-15T16:12:36;14.90;99.30
2767;DHT22;1391;46.742;11.636;2022-10-15T16:15:06;14.90;99.90
2767;DHT22;1391;46.742;11.636;2022-10-15T16:17:34;15.00;99.90
2767;DHT22;1391;46.742;11.636;2022-10-15T16:20:01;14.40;99.90
2767;DHT22;1391;46.742;11.636;2022-10-15T16:22:29;14.50;99.90
2767;DHT22;1391;46.742;11.636;2022-10-15T16:24:56;14.30;99.90